Time;durP1;ratioP1;P1;durP2;ratioP2;P2;SDS_P1;SDS_P2;PMS_P1;PMS_P2;Temp;Humidity;BMP_temperature;BMP_pressure;BME280_temperature;BME280_humidity;BME280_pressure;Samples;Min_cycle;Max_cycle;Signal;HPM_P1;HPM_P2
2024/01/01 00:00:53;;;;;;;20.80;12.60;;;;;;;-8.02;100.00;140334.56;106978;1264;25340;-65
2024/01/01 00:03:39;;;;;;;23.30;12.70;;;;;;;-8.11;100.00;140314.34;106971;1263;25477;-64
2024/01/01 00:06:25;;;;;;;27.10;13.40;;;;;;;-8.24;100.00;140282.03;106963;1273;25360;-65
2024/01/01 00:09:12;;;;;;;27.10;13.20;;;;;;;-8.31;100.00;140263.27;106920;1263;25331;-65
2024/01/01 00:11:58;;;;;;;22.40;12.60;;;;;;;-8.31;100.00;140265.00;107190;1260;25481;-64
2024/01/01 00:14:44;;;;;;;37.00;21.20;;;;;;;-8.30;100.00;140267.97;106952;1263;25338;-62
2024/01/01 00:17:30;;;;;;;41.00;23.90;;;;;;;-8.43;100.00;140234.95;106999;1264;25408;-63
2024/01/01 00:20:16;;;;;;;63.90;35.20;;;;;;;-8.53;100.00;140211.78;106998;1264;25365;-65
2024/01/01 00:23:02;;;;;;;36.20;18.30;;;;;;;-8.61;100.00;140193.03;107040;1263;25536;-65
2024/01/01 00:25:48;;;;;;;36.50;16.20;;;;;;;-8.65;100.00;140183.92;107180;1264;25366;-63
2024/01/01 00:28:33;;;;;;;27.00;16.50;;;;;;;-8.61;100.00;140191.08;107050;1264;25337;-62
2024/01/01 00:31:19;;;;;;;36.00;17.60;;;;;;;-8.61;100.00;140191.80;107020;1263;25380;-62
2024/01/01 00:34:05;;;;;;;27.50;16.70;;;;;;;-8.59;100.00;140196.50;107057;1260;25408;-63
2024/01/01 00:36:50;;;;;;;30.40;18.10;;;;;;;-8.58;100.00;140200.19;107048;1264;25340;-62
2024/01/01 00:39:36;;;;;;;38.80;21.80;;;;;;;-8.58;100.00;140198.70;107148;1267;24482;-63
2024/01/01 00:42:22;;;;;;;40.00;21.00;;;;;;;-8.58;100.00;140199.20;107067;1267;25384;-63
2024/01/01 00:45:09;;;;;;;36.20;20.90;;;;;;;-8.61;100.00;140192.55;107045;1263;25352;-62
2024/01/01 00:47:54;;;;;;;45.40;25.20;;;;;;;-8.64;100.00;140185.66;107087;1260;25490;-62
2024/01/01 00:50:40;;;;;;;34.30;18.70;;;;;;;-8.68;100.00;140174.30;107040;1272;25349;-60
2024/01/01 00:53:25;;;;;;;33.20;17.60;;;;;;;-8.74;100.00;140161.97;107093;1261;25335;-62
2024/01/01 00:56:11;;;;;;;30.60;16.70;;;;;;;-8.72;100.00;140166.17;107050;1263;25372;-62
2024/01/01 00:58:57;;;;;;;27.50;15.80;;;;;;;-8.67;100.00;140178.23;107022;1263;25490;-61
2024/01/01 01:01:43;;;;;;;19.30;10.20;;;;;;;-8.60;100.00;140193.78;107073;1263;25515;-63
2024/01/01 01:04:29;;;;;;;22.30;12.90;;;;;;;-8.50;100.00;140218.67;107074;1264;25341;-64
2024/01/01 01:07:15;;;;;;;35.10;17.90;;;;;;;-8.37;100.00;140250.95;106988;1263;25350;-63
2024/01/01 01:10:00;;;;;;;26.50;15.40;;;;;;;-8.22;100.00;140285.72;107047;1263;25571;-64
2024/01/01 01:12:46;;;;;;;30.00;16.40;;;;;;;-8.12;100.00;140310.14;106974;1260;25356;-64
2024/01/01 01:15:32;;;;;;;68.70;39.70;;;;;;;-8.07;100.00;140322.97;107039;1261;22628;-64
2024/01/01 01:18:18;;;;;;;51.20;30.50;;;;;;;-8.03;100.00;140330.86;107078;1260;25369;-64
2024/01/01 01:21:04;;;;;;;34.10;19.10;;;;;;;-8.01;100.00;140335.55;107064;1264;25331;-62
2024/01/01 01:23:50;;;;;;;34.90;18.00;;;;;;;-7.96;100.00;140348.89;107031;1264;25499;-63
2024/01/01 01:26:36;;;;;;;36.20;22.20;;;;;;;-7.91;100.00;140360.20;106931;1266;25360;-65
2024/01/01 01:29:22;;;;;;;29.50;15.60;;;;;;;-7.85;100.00;140374.55;107105;1264;25332;-64
2024/01/01 01:32:09;;;;;;;33.60;16.50;;;;;;;-7.82;100.00;140382.94;107151;1261;25375;-63
2024/01/01 01:34:54;;;;;;;30.70;16.90;;;;;;;-7.80;100.00;140387.14;107195;1263;25359;-61
2024/01/01 01:37:40;;;;;;;31.50;17.70;;;;;;;-7.79;100.00;140390.08;107106;1264;25373;-63
2024/01/01 01:40:26;;;;;;;28.90;17.00;;;;;;;-7.78;100.00;140391.80;107047;1264;25452;-64
2024/01/01 01:43:24;;;;;;;29.10;16.10;;;;;;;-7.77;100.00;140395.03;107039;1263;25418;-62
2024/01/01 01:46:13;;;;;;;30.30;18.40;;;;;;;-7.78;100.00;140392.33;107070;1263;25359;-63
2024/01/01 01:48:58;;;;;;;31.90;19.00;;;;;;;-7.80;100.00;140387.13;107172;1263;25418;-63
2024/01/01 01:51:47;;;;;;;31.20;18.20;;;;;;;-7.82;100.00;140383.44;107128;1264;25341;-64
2024/01/01 01:54:34;;;;;;;35.10;18.50;;;;;;;-7.82;100.00;140381.72;107131;1264;25564;-63
2024/01/01 01:57:20;;;;;;;26.70;13.40;;;;;;;-7.82;100.00;140383.17;107033;1264;25933;-63
2024/01/01 02:00:07;;;;;;;30.40;18.40;;;;;;;-7.80;100.00;140386.91;107030;1266;25378;-62
2024/01/01 02:02:57;;;;;;;28.70;17.10;;;;;;;-7.81;100.00;140385.42;107069;1263;25408;-65
2024/01/01 02:05:43;;;;;;;27.70;15.60;;;;;;;-7.81;100.00;140385.17;107031;1272;25365;-64
2024/01/01 02:08:29;;;;;;;35.40;18.70;;;;;;;-7.82;100.00;140380.97;107058;1264;25360;-63
2024/01/01 02:11:15;;;;;;;33.10;18.20;;;;;;;-7.83;100.00;140379.48;107054;1263;25331;-64
2024/01/01 02:14:12;;;;;;;29.80;17.20;;;;;;;-7.85;100.00;140375.28;107072;1266;25373;-63
2024/01/01 02:16:58;;;;;;;30.10;16.70;;;;;;;-7.88;100.00;140367.36;107037;1264;25379;-64
2024/01/01 02:19:44;;;;;;;27.90;16.60;;;;;;;-7.89;100.00;140365.41;107011;1266;25338;-65
2024/01/01 02:22:39;;;;;;;29.70;17.80;;;;;;;-7.85;100.00;140376.28;107214;1263;24244;-64
2024/01/01 02:25:25;;;;;;;27.30;16.90;;;;;;;-7.83;100.00;140379.00;107536;1264;25440;-64
2024/01/01 02:28:13;;;;;;;31.40;17.50;;;;;;;-7.84;100.00;140378.48;107107;1263;25356;-63
2024/01/01 02:30:59;;;;;;;36.10;19.40;;;;;;;-7.85;100.00;140376.03;107025;1264;25459;-64
2024/01/01 02:33:45;;;;;;;31.40;17.90;;;;;;;-7.85;100.00;140375.78;107017;1260;25356;-64
2024/01/01 02:36:37;;;;;;;27.40;17.10;;;;;;;-7.86;100.00;140372.33;107033;1261;25498;-62
2024/01/01 02:39:22;;;;;;;30.40;17.30;;;;;;;-7.84;100.00;140378.00;107120;1263;25347;-62
2024/01/01 02:42:07;;;;;;;33.00;19.30;;;;;;;-7.81;100.00;140386.16;107227;1263;25402;-63
2024/01/01 02:44:53;;;;;;;33.70;19.40;;;;;;;-7.81;100.00;140384.17;107160;1273;25402;-64
2024/01/01 02:47:39;;;;;;;36.00;19.10;;;;;;;-7.83;100.00;140379.98;107016;1263;25508;-64
2024/01/01 02:50:25;;;;;;;38.80;21.40;;;;;;;-7.82;100.00;140380.72;107020;1257;25359;-64
2024/01/01 02:53:11;;;;;;;32.80;21.30;;;;;;;-7.84;100.00;140377.50;107056;1263;25420;-62
2024/01/01 02:55:57;;;;;;;32.50;18.80;;;;;;;-7.84;100.00;140377.98;107048;1263;25365;-61
2024/01/01 02:58:44;;;;;;;34.70;19.70;;;;;;;-7.83;100.00;140380.97;107040;1260;25340;-61
2024/01/01 03:01:30;;;;;;;28.90;16.90;;;;;;;-7.81;100.00;140384.67;107054;1263;25359;-62
2024/01/01 03:04:15;;;;;;;31.10;16.00;;;;;;;-7.77;100.00;140395.03;107070;1260;25356;-63
2024/01/01 03:07:02;;;;;;;23.30;15.20;;;;;;;-7.72;100.00;140407.86;107043;1263;25513;-63
2024/01/01 03:09:49;;;;;;;24.90;14.70;;;;;;;-7.62;100.00;140430.58;107031;1260;25417;-64
2024/01/01 03:12:35;;;;;;;25.20;15.80;;;;;;;-7.55;100.00;140447.34;107082;1264;25341;-63
2024/01/01 03:15:21;;;;;;;26.00;16.90;;;;;;;-7.50;100.00;140460.42;107017;1260;25350;-63
2024/01/01 03:18:06;;;;;;;26.60;13.80;;;;;;;-7.45;100.00;140472.27;107000;1262;25359;-64
2024/01/01 03:20:53;;;;;;;28.80;14.60;;;;;;;-7.40;100.00;140483.13;106985;1263;25356;-64
2024/01/01 03:23:38;;;;;;;22.70;13.30;;;;;;;-7.39;100.00;140487.09;107145;1263;25336;-63
2024/01/01 03:26:24;;;;;;;23.10;12.80;;;;;;;-7.35;100.00;140494.98;107081;1263;25448;-63
2024/01/01 03:29:10;;;;;;;23.30;13.40;;;;;;;-7.33;100.00;140501.66;107090;1260;25341;-61
2024/01/01 03:31:56;;;;;;;23.50;13.70;;;;;;;-7.32;100.00;140502.66;107062;1263;25442;-63
2024/01/01 03:34:43;;;;;;;23.40;12.40;;;;;;;-7.33;100.00;140501.64;107059;1263;25351;-63
2024/01/01 03:37:29;;;;;;;22.40;13.30;;;;;;;-7.31;100.00;140506.34;107073;1263;25408;-62
2024/01/01 03:40:15;;;;;;;24.10;13.20;;;;;;;-7.28;100.00;140512.50;107088;1260;25490;-63
2024/01/01 03:43:01;;;;;;;25.40;13.80;;;;;;;-7.27;100.00;140515.72;107057;1263;25555;-64
2024/01/01 03:45:46;;;;;;;26.50;14.30;;;;;;;-7.27;100.00;140515.48;107089;1263;25478;-63
2024/01/01 03:48:32;;;;;;;26.30;15.00;;;;;;;-7.28;100.00;140513.02;107051;1260;25395;-64
2024/01/01 03:51:18;;;;;;;25.80;15.90;;;;;;;-7.30;100.00;140508.83;107103;1263;25389;-63
2024/01/01 03:54:03;;;;;;;26.80;15.40;;;;;;;-7.33;100.00;140500.16;107036;1263;25430;-64
2024/01/01 03:56:49;;;;;;;25.10;15.60;;;;;;;-7.36;100.00;140493.98;107067;1253;25351;-62
2024/01/01 03:59:35;;;;;;;24.80;15.60;;;;;;;-7.37;100.00;140491.28;107053;1263;25349;-63
2024/01/01 04:02:21;;;;;;;24.60;15.60;;;;;;;-7.36;100.00;140493.25;107117;1263;25408;-65
2024/01/01 04:05:08;;;;;;;26.10;15.00;;;;;;;-7.36;100.00;140492.53;107076;1263;25490;-64
2024/01/01 04:07:53;;;;;;;25.90;15.40;;;;;;;-7.35;100.00;140494.75;107052;1263;25379;-62
2024/01/01 04:10:39;;;;;;;28.20;15.00;;;;;;;-7.36;100.00;140493.75;107070;1272;25408;-64
2024/01/01 04:13:25;;;;;;;28.40;15.70;;;;;;;-7.34;100.00;140498.67;107094;1262;25369;-62
2024/01/01 04:16:10;;;;;;;27.60;15.90;;;;;;;-7.34;100.00;140498.92;107034;1262;25341;-63
2024/01/01 04:18:57;;;;;;;26.10;15.90;;;;;;;-7.37;100.00;140492.03;107047;1260;25433;-65
2024/01/01 04:21:43;;;;;;;27.50;15.80;;;;;;;-7.39;100.00;140486.59;107058;1263;25400;-62
2024/01/01 04:24:29;;;;;;;36.60;17.60;;;;;;;-7.39;100.00;140485.09;107108;1263;25417;-61
2024/01/01 04:27:15;;;;;;;31.20;17.00;;;;;;;-7.40;100.00;140483.89;107077;1260;25507;-62
2024/01/01 04:30:00;;;;;;;27.70;17.10;;;;;;;-7.38;100.00;140487.34;107056;1271;25369;-62
2024/01/01 04:32:46;;;;;;;27.40;16.70;;;;;;;-7.38;100.00;140489.05;107053;1263;25344;-64
2024/01/01 04:35:32;;;;;;;29.30;17.70;;;;;;;-7.39;100.00;140485.84;107025;1272;25490;-64
2024/01/01 04:38:17;;;;;;;32.60;17.80;;;;;;;-7.39;100.00;140487.09;107040;1260;25482;-62
2024/01/01 04:41:03;;;;;;;27.10;16.60;;;;;;;-7.39;100.00;140485.59;107006;1263;25344;-64
2024/01/01 04:43:49;;;;;;;32.40;17.00;;;;;;;-7.43;100.00;140475.98;107109;1263;25378;-62
2024/01/01 04:46:34;;;;;;;30.10;15.60;;;;;;;-7.49;100.00;140463.39;107104;1263;24177;-61
2024/01/01 04:49:20;;;;;;;23.00;13.30;;;;;;;-7.49;100.00;140461.66;107250;1263;25408;-63
2024/01/01 04:52:05;;;;;;;22.00;13.10;;;;;;;-7.45;100.00;140471.80;107171;1263;25365;-63
2024/01/01 04:54:55;;;;;;;27.10;13.50;;;;;;;-7.43;100.00;140477.70;107228;1263;25332;-63
2024/01/01 04:57:41;;;;;;;26.70;13.00;;;;;;;-7.40;100.00;140483.38;107048;1263;25417;-64
2024/01/01 05:00:27;;;;;;;22.60;12.40;;;;;;;-7.41;100.00;140480.92;107073;1264;25362;-64
2024/01/01 05:03:12;;;;;;;23.90;13.70;;;;;;;-7.42;100.00;140478.69;107052;1263;25354;-63
2024/01/01 05:05:58;;;;;;;28.00;14.10;;;;;;;-7.43;100.00;140477.22;107062;1263;25372;-64
2024/01/01 05:08:43;;;;;;;25.20;13.10;;;;;;;-7.42;100.00;140479.69;107103;1262;25417;-62
2024/01/01 05:11:29;;;;;;;26.30;13.50;;;;;;;-7.44;100.00;140473.28;107072;1267;25366;-60
2024/01/01 05:14:15;;;;;;;23.10;14.20;;;;;;;-7.44;100.00;140473.28;107095;1263;25403;-60
2024/01/01 05:17:01;;;;;;;24.90;12.70;;;;;;;-7.42;100.00;140478.45;107065;1260;25488;-63
2024/01/01 05:19:50;;;;;;;24.80;12.90;;;;;;;-7.40;100.00;140482.91;107060;1262;25415;-63
2024/01/01 05:22:35;;;;;;;19.20;11.00;;;;;;;-7.37;100.00;140489.80;107050;1263;25525;-62
2024/01/01 05:25:21;;;;;;;19.00;11.60;;;;;;;-7.33;100.00;140499.92;107097;1263;25488;-64
2024/01/01 05:28:08;;;;;;;21.30;12.40;;;;;;;-7.29;100.00;140510.05;107051;1272;25353;-64
2024/01/01 05:30:53;;;;;;;20.00;11.90;;;;;;;-7.25;100.00;140520.67;106959;1263;125042;-63
2024/01/01 05:33:39;;;;;;;21.30;11.70;;;;;;;-7.21;100.00;140530.55;107036;1263;25350;-63
2024/01/01 05:36:25;;;;;;;20.20;12.60;;;;;;;-7.17;100.00;140537.70;107082;1263;25433;-64
2024/01/01 05:39:11;;;;;;;23.50;12.90;;;;;;;-7.14;100.00;140545.13;107070;1263;25341;-63
2024/01/01 05:41:56;;;;;;;22.10;12.10;;;;;;;-7.15;100.00;140543.86;107073;1262;25429;-62
2024/01/01 05:44:42;;;;;;;22.80;13.40;;;;;;;-7.16;100.00;140539.94;107068;1263;25351;-64
2024/01/01 05:47:28;;;;;;;18.80;11.10;;;;;;;-7.18;100.00;140536.70;107051;1263;25403;-64
2024/01/01 05:50:13;;;;;;;28.60;15.10;;;;;;;-7.17;100.00;140537.94;107015;1263;25372;-65
2024/01/01 05:52:59;;;;;;;24.00;13.40;;;;;;;-7.19;100.00;140533.02;107067;1260;25389;-64
2024/01/01 05:55:45;;;;;;;24.40;14.00;;;;;;;-7.21;100.00;140530.78;107196;1260;25478;-64
2024/01/01 05:58:31;;;;;;;24.00;12.30;;;;;;;-7.23;100.00;140525.59;107116;1263;25369;-62
2024/01/01 06:01:17;;;;;;;23.40;12.70;;;;;;;-7.28;100.00;140514.00;107272;1264;25452;-67
2024/01/01 06:04:02;;;;;;;20.10;11.60;;;;;;;-7.30;100.00;140508.58;107203;1251;25358;-62
2024/01/01 06:06:48;;;;;;;22.10;12.80;;;;;;;-7.32;100.00;140503.63;107159;1263;25527;-62
2024/01/01 06:09:34;;;;;;;23.50;14.00;;;;;;;-7.35;100.00;140495.75;107056;1266;25443;-62
2024/01/01 06:12:20;;;;;;;23.20;13.90;;;;;;;-7.36;100.00;140493.52;107070;1263;25341;-62
2024/01/01 06:15:06;;;;;;;27.40;14.20;;;;;;;-7.36;100.00;140494.00;107041;1260;25369;-64
2024/01/01 06:17:52;;;;;;;27.10;13.60;;;;;;;-7.37;100.00;140491.28;107411;1263;25920;-62
2024/01/01 06:20:38;;;;;;;23.50;13.80;;;;;;;-7.34;100.00;140497.69;107409;1263;25430;-64
2024/01/01 06:23:24;;;;;;;27.70;14.10;;;;;;;-7.33;100.00;140501.41;107101;1263;25587;-63
2024/01/01 06:26:10;;;;;;;32.80;15.10;;;;;;;-7.32;100.00;140504.13;107063;1260;25491;-65
2024/01/01 06:28:55;;;;;;;22.20;12.70;;;;;;;-7.32;100.00;140502.16;107034;1256;25456;-63
2024/01/01 06:31:42;;;;;;;22.20;13.50;;;;;;;-7.34;100.00;140497.22;107080;1263;25403;-64
2024/01/01 06:34:28;;;;;;;21.90;14.00;;;;;;;-7.38;100.00;140489.33;107042;1263;25340;-62
2024/01/01 06:37:13;;;;;;;24.00;14.40;;;;;;;-7.39;100.00;140487.33;106990;1263;25458;-63
2024/01/01 06:39:59;;;;;;;26.20;13.90;;;;;;;-7.39;100.00;140485.11;107079;1263;25407;-61
2024/01/01 06:42:45;;;;;;;24.60;14.10;;;;;;;-7.39;100.00;140485.34;107093;1270;25446;-63
2024/01/01 06:45:30;;;;;;;22.80;14.20;;;;;;;-7.43;100.00;140476.97;107087;1263;25456;-63
2024/01/01 06:48:16;;;;;;;23.70;13.00;;;;;;;-7.46;100.00;140469.56;107044;1263;25365;-64
2024/01/01 06:51:08;;;;;;;22.20;13.40;;;;;;;-7.46;100.00;140469.33;107079;1263;25489;-63
2024/01/01 06:53:54;;;;;;;23.90;14.10;;;;;;;-7.50;100.00;140459.70;107045;1263;25443;-64
2024/01/01 06:56:41;;;;;;;21.50;13.30;;;;;;;-7.51;100.00;140457.97;107042;1263;26022;-63
2024/01/01 06:59:28;;;;;;;23.50;12.60;;;;;;;-7.48;100.00;140463.66;107060;1263;25451;-65
2024/01/01 07:02:14;;;;;;;24.00;13.20;;;;;;;-7.50;100.00;140458.70;107004;1263;25484;-64
2024/01/01 07:05:00;;;;;;;18.50;11.10;;;;;;;-7.51;100.00;140456.47;106974;1263;25411;-64
2024/01/01 07:07:46;;;;;;;24.20;14.30;;;;;;;-7.54;100.00;140450.80;107086;1261;25368;-64
2024/01/01 07:10:31;;;;;;;21.10;11.70;;;;;;;-7.54;100.00;140448.84;107183;1263;25417;-64
2024/01/01 07:13:17;;;;;;;23.60;12.90;;;;;;;-7.52;100.00;140455.73;107060;1261;25405;-64
2024/01/01 07:16:03;;;;;;;23.10;11.20;;;;;;;-7.51;100.00;140457.47;107072;1263;25484;-63
2024/01/01 07:18:48;;;;;;;21.30;11.60;;;;;;;-7.46;100.00;140469.08;107039;1263;25481;-64
2024/01/01 07:21:34;;;;;;;18.80;12.10;;;;;;;-7.41;100.00;140481.16;107033;1263;25452;-63
2024/01/01 07:24:19;;;;;;;20.80;11.40;;;;;;;-7.37;100.00;140492.03;107108;1260;25408;-62
2024/01/01 07:27:05;;;;;;;21.10;12.10;;;;;;;-7.30;100.00;140508.08;107129;1263;24293;-61
2024/01/01 07:29:51;;;;;;;24.60;12.50;;;;;;;-7.22;100.00;140527.33;107063;1263;25436;-64
2024/01/01 07:32:36;;;;;;;23.70;12.00;;;;;;;-7.19;100.00;140533.75;107080;1263;25341;-64
2024/01/01 07:35:22;;;;;;;20.70;12.00;;;;;;;-7.19;100.00;140534.00;107085;1260;25487;-64
2024/01/01 07:38:08;;;;;;;24.10;12.80;;;;;;;-7.17;100.00;140538.20;107122;1263;25417;-64
2024/01/01 07:40:54;;;;;;;21.20;12.30;;;;;;;-7.13;100.00;140547.58;107055;1260;25414;-63
2024/01/01 07:43:40;;;;;;;24.60;13.10;;;;;;;-7.10;100.00;140556.20;107111;1263;25331;-62
2024/01/01 07:46:25;;;;;;;24.30;13.20;;;;;;;-7.02;100.00;140574.97;107089;1260;25362;-64
2024/01/01 07:49:11;;;;;;;21.10;11.40;;;;;;;-6.95;100.00;140592.03;107149;1263;25520;-64
2024/01/01 07:51:57;;;;;;;19.50;11.90;;;;;;;-6.85;100.00;140615.50;107098;1264;25341;-62
2024/01/01 07:54:43;;;;;;;23.10;12.80;;;;;;;-6.80;100.00;140628.84;107072;1263;25369;-64
2024/01/01 07:57:29;;;;;;;21.90;12.90;;;;;;;-6.77;100.00;140635.50;107026;1263;25368;-62
2024/01/01 08:00:15;;;;;;;23.30;12.60;;;;;;;-6.75;100.00;140639.69;107047;1263;25481;-64
2024/01/01 08:03:01;;;;;;;24.60;13.00;;;;;;;-6.74;100.00;140642.42;107125;1253;25408;-63
2024/01/01 08:05:46;;;;;;;20.70;12.50;;;;;;;-6.73;100.00;140643.41;107024;1266;25393;-64
2024/01/01 08:08:33;;;;;;;21.30;12.60;;;;;;;-6.69;100.00;140653.53;107035;1263;25405;-63
2024/01/01 08:11:19;;;;;;;25.30;13.90;;;;;;;-6.66;100.00;140662.17;107070;1266;25344;-64
2024/01/01 08:14:05;;;;;;;24.70;13.20;;;;;;;-6.65;100.00;140665.88;107051;1266;25359;-63
2024/01/01 08:16:52;;;;;;;23.50;14.00;;;;;;;-6.63;100.00;140670.58;107332;1270;25369;-64
2024/01/01 08:19:38;;;;;;;21.20;12.70;;;;;;;-6.62;100.00;140671.33;107389;1263;25385;-64
2024/01/01 08:22:24;;;;;;;22.20;13.40;;;;;;;-6.61;100.00;140673.53;107145;1263;25351;-64
2024/01/01 08:25:10;;;;;;;30.40;14.00;;;;;;;-6.61;100.00;140675.28;107004;1263;25511;-62
2024/01/01 08:27:55;;;;;;;23.50;13.80;;;;;;;-6.58;100.00;140680.95;107011;1264;25382;-62
2024/01/01 08:30:43;;;;;;;22.60;13.90;;;;;;;-6.55;100.00;140690.34;107037;1266;25376;-64
2024/01/01 08:33:29;;;;;;;27.90;14.20;;;;;;;-6.51;100.00;140698.50;107064;1266;25405;-63
2024/01/01 08:36:14;;;;;;;23.70;13.70;;;;;;;-6.45;100.00;140714.33;107067;1263;25344;-64
2024/01/01 08:39:00;;;;;;;22.50;13.20;;;;;;;-6.44;100.00;140715.55;107049;1266;25341;-65
2024/01/01 08:41:46;;;;;;;23.80;14.00;;;;;;;-6.42;100.00;140721.47;107037;1271;25487;-64
2024/01/01 08:44:31;;;;;;;26.80;13.60;;;;;;;-6.41;100.00;140723.94;107104;1273;25423;-64
2024/01/01 08:47:17;;;;;;;24.60;14.80;;;;;;;-6.43;100.00;140718.28;107118;1263;25369;-65
2024/01/01 08:50:03;;;;;;;20.20;13.40;;;;;;;-6.40;100.00;140726.16;106998;1272;25406;-62
2024/01/01 08:52:49;;;;;;;23.80;12.80;;;;;;;-6.30;100.00;140748.16;107058;1264;25491;-62
2024/01/01 08:55:35;;;;;;;24.30;14.30;;;;;;;-6.29;100.00;140751.38;106952;1272;25411;-63
2024/01/01 08:58:20;;;;;;;22.90;13.40;;;;;;;-6.30;100.00;140749.14;107015;1264;25433;-63
2024/01/01 09:01:06;;;;;;;23.30;12.90;;;;;;;-6.30;100.00;140748.41;107091;1263;25341;-63
2024/01/01 09:03:52;;;;;;;25.40;14.90;;;;;;;-6.22;100.00;140768.17;107015;1266;25445;-63
2024/01/01 09:06:39;;;;;;;23.30;13.40;;;;;;;-6.09;100.00;140800.08;106997;1269;25415;-63
2024/01/01 09:09:28;;;;;;;24.70;13.60;;;;;;;-6.03;100.00;140815.66;106995;1256;25368;-63
2024/01/01 09:12:14;;;;;;;24.40;14.80;;;;;;;-5.85;100.00;140856.91;106982;1263;25369;-63
2024/01/01 09:15:00;;;;;;;21.50;13.20;;;;;;;-5.72;100.00;140888.53;106972;1269;25511;-64
2024/01/01 09:17:45;;;;;;;23.70;13.60;;;;;;;-5.62;100.00;140912.52;107076;1266;22572;-65
2024/01/01 09:20:31;;;;;;;25.20;14.20;;;;;;;-5.49;100.00;140945.91;107017;1266;25418;-65
2024/01/01 09:23:17;;;;;;;24.30;14.90;;;;;;;-5.32;100.00;140985.97;107041;1266;25420;-63
2024/01/01 09:26:03;;;;;;;26.10;15.70;;;;;;;-5.31;100.00;140988.92;107371;1266;25356;-64
2024/01/01 09:28:50;;;;;;;26.20;15.60;;;;;;;-5.35;100.00;140978.56;107091;1264;25343;-65
2024/01/01 09:31:35;;;;;;;23.90;14.60;;;;;;;-5.43;100.00;140960.02;107174;1263;25283;-64
2024/01/01 09:34:21;;;;;;;28.70;16.00;;;;;;;-5.46;100.00;140953.81;107082;1263;25511;-65
2024/01/01 09:37:07;;;;;;;25.10;15.80;;;;;;;-5.51;100.00;140941.69;107064;1263;25490;-64
2024/01/01 09:39:53;;;;;;;29.40;16.60;;;;;;;-5.57;100.00;140926.34;107035;1263;25522;-66
2024/01/01 09:42:46;;;;;;;25.10;16.00;;;;;;;-5.63;100.00;140911.28;107026;1263;25341;-65
2024/01/01 09:45:34;;;;;;;24.00;14.50;;;;;;;-5.61;100.00;140915.98;107022;1263;25356;-65
2024/01/01 09:48:19;;;;;;;27.80;15.30;;;;;;;-5.59;100.00;140921.66;107096;1263;25359;-63
2024/01/01 09:51:06;;;;;;;31.60;17.30;;;;;;;-5.58;100.00;140924.64;107041;1263;25418;-66
2024/01/01 09:53:52;;;;;;;28.00;17.10;;;;;;;-5.51;100.00;140940.45;107026;1263;25473;-64
2024/01/01 09:56:38;;;;;;;27.50;17.80;;;;;;;-5.46;100.00;140953.58;107019;1263;25519;-62
2024/01/01 09:59:37;;;;;;;25.00;15.80;;;;;;;-5.40;100.00;140966.91;107039;1263;25350;-64
2024/01/01 10:02:24;;;;;;;27.00;16.00;;;;;;;-5.19;100.00;141017.66;107038;1263;25386;-61
2024/01/01 10:05:12;;;;;;;27.00;16.40;;;;;;;-5.10;100.00;141038.67;107197;1263;25359;-66
2024/01/01 10:08:11;;;;;;;29.50;16.80;;;;;;;-5.01;100.00;141060.70;107062;1263;24219;-64
2024/01/01 10:10:57;;;;;;;28.70;17.70;;;;;;;-4.93;100.00;141079.50;107214;1263;25951;-63
2024/01/01 10:13:43;;;;;;;26.20;16.10;;;;;;;-4.77;100.00;141119.59;107485;1263;23222;-63
2024/01/01 10:16:30;;;;;;;29.90;18.80;;;;;;;-4.65;100.00;141148.06;107115;1263;25458;-64
2024/01/01 10:19:15;;;;;;;32.40;18.50;;;;;;;-4.60;100.00;141160.17;107001;1260;25338;-62
2024/01/01 10:22:11;;;;;;;27.80;18.00;;;;;;;-4.57;100.00;141166.34;107172;1263;25340;-65
2024/01/01 10:25:11;;;;;;;28.90;17.90;;;;;;;-4.54;100.00;141173.56;106990;1266;25362;-65
2024/01/01 10:28:00;;;;;;;25.30;15.90;;;;;;;-4.48;100.00;141188.91;106998;1266;25456;-63
2024/01/01 10:30:49;;;;;;;30.40;18.70;;;;;;;-4.45;100.00;141196.33;107122;1266;25386;-64
2024/01/01 10:33:35;;;;;;;31.40;19.20;;;;;;;-4.36;100.00;141218.36;107008;1263;25417;-63
2024/01/01 10:36:22;;;;;;;30.20;18.00;;;;;;;-4.23;100.00;141251.05;106980;1263;25334;-61
2024/01/01 10:39:12;;;;;;;31.30;18.40;;;;;;;-4.10;100.00;141281.02;107024;1263;25338;-62
2024/01/01 10:41:57;;;;;;;34.90;20.30;;;;;;;-4.15;100.00;141270.09;106992;1263;25344;-58
2024/01/01 10:44:43;;;;;;;31.30;19.10;;;;;;;-4.16;100.00;141268.13;107009;1273;25491;-62
2024/01/01 10:47:30;;;;;;;29.10;18.20;;;;;;;-4.23;100.00;141249.56;107050;1263;25539;-59
2024/01/01 10:50:27;;;;;;;31.00;19.20;;;;;;;-4.31;100.00;141230.50;106998;1271;25417;-60
2024/01/01 10:53:36;;;;;;;31.90;19.60;;;;;;;-4.30;100.00;141231.72;107098;1263;25405;-64
2024/01/01 10:57:01;;;;;;;32.10;19.90;;;;;;;-4.13;100.00;141274.56;107022;1263;25433;-60
2024/01/01 10:59:55;;;;;;;34.80;21.40;;;;;;;-4.06;100.00;141289.42;106477;1271;25369;-62
2024/01/01 11:02:43;;;;;;;30.70;19.00;;;;;;;-4.08;100.00;141284.97;106738;1272;25574;-65
2024/01/01 11:05:33;;;;;;;29.50;18.50;;;;;;;-4.04;100.00;141296.38;106521;1270;25240;-60
2024/01/01 11:08:29;;;;;;;28.60;18.30;;;;;;;-3.98;100.00;141309.97;106503;1279;25391;-64
2024/01/01 11:11:31;;;;;;;30.20;17.40;;;;;;;-3.93;100.00;141321.39;106469;1272;25548;-65
2024/01/01 11:14:29;;;;;;;31.30;19.50;;;;;;;-3.84;100.00;141343.19;106443;1270;22575;-62
2024/01/01 11:17:22;;;;;;;32.60;19.60;;;;;;;-3.83;100.00;141347.16;106434;1270;25734;-63
2024/01/01 11:20:09;;;;;;;35.60;19.40;;;;;;;-3.78;100.00;141359.75;106430;1276;25345;-60
2024/01/01 11:22:55;;;;;;;30.20;19.00;;;;;;;-3.85;100.00;141341.45;106527;1272;25379;-64
2024/01/01 11:25:41;;;;;;;32.40;19.20;;;;;;;-3.84;100.00;141343.66;106395;1272;25659;-65
2024/01/01 11:28:38;;;;;;;29.00;18.20;;;;;;;-3.81;100.00;141352.34;106435;1272;25324;-61
2024/01/01 11:31:27;;;;;;;32.80;20.00;;;;;;;-3.82;100.00;141348.13;106500;1271;25331;-64
2024/01/01 11:34:16;;;;;;;32.10;19.30;;;;;;;-3.92;100.00;141325.09;106863;1275;25484;-62
2024/01/01 11:37:21;;;;;;;31.20;19.90;;;;;;;-3.91;100.00;141327.33;107017;1261;23418;-62
2024/01/01 11:40:09;;;;;;;37.20;20.80;;;;;;;-3.90;100.00;141328.81;107100;1269;25369;-62
2024/01/01 11:43:06;;;;;;;29.20;18.60;;;;;;;-3.94;100.00;141319.64;107093;1266;25879;-60
2024/01/01 11:45:57;;;;;;;34.00;17.80;;;;;;;-4.13;100.00;141274.55;106970;1263;25334;-61
2024/01/01 11:49:01;;;;;;;27.40;17.40;;;;;;;-4.19;100.00;141260.20;106971;1264;25359;-60
2024/01/01 11:51:53;;;;;;;29.80;19.10;;;;;;;-4.27;100.00;141238.92;107026;1263;25388;-62
2024/01/01 11:54:38;;;;;;;29.20;17.70;;;;;;;-4.35;100.00;141221.08;107112;1263;25359;-63
2024/01/01 11:57:24;;;;;;;32.40;18.30;;;;;;;-4.45;100.00;141195.56;107002;1263;25325;-58
2024/01/01 12:00:12;;;;;;;26.50;17.20;;;;;;;-4.42;100.00;141203.50;106972;1263;25360;-63
2024/01/01 12:03:00;;;;;;;35.50;18.70;;;;;;;-4.40;100.00;141209.45;107044;1263;25403;-63
2024/01/01 12:05:45;;;;;;;29.60;18.70;;;;;;;-4.33;100.00;141226.28;106963;1266;25488;-62
2024/01/01 12:08:32;;;;;;;31.90;20.00;;;;;;;-4.29;100.00;141235.94;106957;1272;25309;-65
2024/01/01 12:11:18;;;;;;;28.40;18.40;;;;;;;-4.27;100.00;141240.91;106972;1268;25344;-61
2024/01/01 12:14:04;;;;;;;30.90;18.80;;;;;;;-4.32;100.00;141228.03;106973;1266;25420;-61
2024/01/01 12:16:51;;;;;;;32.70;18.90;;;;;;;-4.33;100.00;141225.78;107071;1270;25322;-62
2024/01/01 12:19:37;;;;;;;34.80;19.50;;;;;;;-4.35;100.00;141221.33;106984;1263;25331;-63
2024/01/01 12:22:24;;;;;;;33.70;20.10;;;;;;;-4.28;100.00;141236.42;106991;1263;25432;-63